createdAt,value
2022-07-26T00:02:51.911Z,1.34
2022-07-26T00:17:44.203Z,1.20
2022-07-26T00:32:36.915Z,1.20
2022-07-26T00:47:29.266Z,1.24
2022-07-26T01:02:21.507Z,1.37
2022-07-26T01:17:16.726Z,1.37
2022-07-26T01:32:06.746Z,1.49
2022-07-26T01:46:58.964Z,1.49
2022-07-26T02:01:50.653Z,1.17
2022-07-26T02:16:42.319Z,1.37
2022-07-26T02:31:33.186Z,1.29
2022-07-26T02:46:24.782Z,1.89
2022-07-26T03:01:16.330Z,1.50
2022-07-26T03:16:07.811Z,1.76
2022-07-26T03:30:58.577Z,1.95
2022-07-26T03:45:50.363Z,1.86
2022-07-26T04:00:41.776Z,1.79
2022-07-26T04:15:33.800Z,2.10
2022-07-26T04:30:25.264Z,2.00
2022-07-26T04:45:16.457Z,1.71
2022-07-26T05:00:21.878Z,1.91
2022-07-26T05:15:06.296Z,1.90
2022-07-26T05:30:02.353Z,2.40
2022-07-26T05:44:52.773Z,2.28
2022-07-26T05:59:44.592Z,1.85
2022-07-26T06:44:35.293Z,2.25
2022-07-26T06:59:26.401Z,1.62
2022-07-26T08:13:47.931Z,1.17
2022-07-26T08:28:47.343Z,1.40
2022-07-26T08:43:29.992Z,1.30
2022-07-26T08:58:23.401Z,1.26
2022-07-26T09:13:14.300Z,1.23
2022-07-26T09:28:24.551Z,1.50
2022-07-26T09:43:24.948Z,1.30
2022-07-26T09:58:16.058Z,1.10
2022-07-26T10:13:07.544Z,1.10
2022-07-26T10:27:58.954Z,0.90
2022-07-26T10:42:50.549Z,1.10
2022-07-26T10:57:42.293Z,1.10
2022-07-26T11:12:33.610Z,1.00
2022-07-26T11:27:24.918Z,1.10
2022-07-26T11:42:17.373Z,1.15
2022-07-26T11:57:10.768Z,1.16
2022-07-26T12:12:00.240Z,1.20
2022-07-26T12:26:50.961Z,1.04
2022-07-26T12:41:43.242Z,1.29
2022-07-26T12:56:35.243Z,1.20
2022-07-26T13:11:29.189Z,1.79
2022-07-26T13:26:21.775Z,1.11
2022-07-26T13:41:15.425Z,1.11
2022-07-26T13:56:07.593Z,0.90
2022-07-26T14:11:00.704Z,1.20
2022-07-26T14:25:52.681Z,1.00
2022-07-26T14:40:46.107Z,1.30
2022-07-26T14:55:39.102Z,1.28
2022-07-26T15:10:29.836Z,1.20
2022-07-26T15:25:24.950Z,1.20
2022-07-26T15:40:19.829Z,1.02
2022-07-26T15:55:16.654Z,1.04
2022-07-26T16:10:09.613Z,1.17
2022-07-26T16:25:01.906Z,1.11
2022-07-26T16:39:51.538Z,1.11
2022-07-26T16:54:42.222Z,1.18
2022-07-26T17:09:33.818Z,1.50
2022-07-26T17:24:26.355Z,1.31
2022-07-26T17:39:17.853Z,1.34
2022-07-26T17:54:10.296Z,1.13
2022-07-26T18:09:04.482Z,1.53
2022-07-26T18:24:15.685Z,1.68
2022-07-26T18:38:46.835Z,1.58
2022-07-26T18:53:48.347Z,1.40
2022-07-26T19:08:40.902Z,1.69
2022-07-26T19:23:32.722Z,1.80
2022-07-26T19:38:23.738Z,1.87
2022-07-26T19:53:15.557Z,1.76
2022-07-26T20:08:07.510Z,1.40
2022-07-26T20:22:58.616Z,1.75
2022-07-26T20:37:50.802Z,1.50
2022-07-26T21:09:14.527Z,1.48
2022-07-26T21:24:06.184Z,1.70
2022-07-26T21:38:57.826Z,1.80
2022-07-26T21:53:48.210Z,2.00
2022-07-26T22:08:39.745Z,2.06
2022-07-26T22:23:31.101Z,1.60
2022-07-26T22:38:23.950Z,2.30
2022-07-26T22:53:14.620Z,2.42
2022-07-26T23:08:29.420Z,2.72
2022-07-26T23:22:58.993Z,2.75
2022-07-26T23:37:49.743Z,3.09
2022-07-26T23:52:40.602Z,2.96
